createdAt,value
2023-01-19T00:10:47.823Z,4.52
2023-01-19T00:30:47.829Z,4.51
2023-01-19T00:50:47.814Z,4.51
2023-01-19T01:10:47.824Z,4.5
2023-01-19T01:30:47.831Z,4.5
2023-01-19T01:50:47.820Z,4.49
2023-01-19T02:30:47.861Z,4.47
2023-01-19T02:50:47.840Z,4.46
2023-01-19T03:30:47.891Z,4.44
2023-01-19T03:50:47.863Z,4.43
2023-01-19T04:10:47.852Z,4.42
2023-01-19T04:50:47.347Z,4.4
2023-01-19T05:10:47.899Z,4.4
2023-01-19T05:30:47.903Z,4.4
2023-01-19T05:50:47.879Z,4.39
2023-01-19T06:30:47.898Z,4.39
2023-01-19T06:50:47.927Z,4.39
2023-01-19T07:11:22.055Z,4.39
2023-01-19T07:50:47.386Z,4.38
2023-01-19T08:10:47.904Z,4.37
2023-01-19T08:30:47.983Z,4.36
2023-01-19T08:50:47.927Z,4.36
2023-01-19T09:50:47.171Z,4.32
2023-01-19T10:10:47.939Z,4.31
2023-01-19T10:30:48.009Z,4.3
2023-01-19T10:50:48.004Z,4.3
2023-01-19T11:10:49.282Z,4.29
2023-01-19T11:30:47.226Z,4.29
2023-01-19T11:50:47.956Z,4.28
2023-01-19T12:10:47.984Z,4.28
2023-01-19T12:30:48.005Z,4.28
2023-01-19T12:50:47.458Z,4.28
2023-01-19T13:30:48.195Z,4.27
2023-01-19T13:50:47.989Z,4.27
2023-01-19T14:10:47.470Z,4.27
2023-01-19T14:30:47.575Z,4.27
2023-01-19T14:51:01.833Z,4.27
2023-01-19T15:10:48.048Z,4.27
2023-01-19T15:30:48.066Z,4.27
2023-01-19T15:50:47.920Z,4.27
2023-01-19T16:10:48.016Z,4.27
2023-01-19T16:30:47.288Z,4.27
2023-01-19T16:50:48.025Z,4.28
2023-01-19T17:30:48.132Z,4.28
2023-01-19T18:10:47.544Z,4.28
2023-01-19T18:30:48.134Z,4.28
2023-01-19T18:50:48.038Z,4.28
2023-01-19T19:10:48.053Z,4.28
2023-01-19T20:30:47.357Z,4.28
2023-01-19T20:50:48.065Z,4.28
2023-01-19T21:30:47.614Z,4.28
2023-01-19T21:50:48.068Z,4.28
2023-01-19T22:10:48.075Z,4.28
2023-01-19T22:30:48.145Z,4.28
2023-01-19T22:50:48.016Z,4.28
2023-01-19T23:10:48.079Z,4.28
2023-01-19T23:30:48.171Z,4.28
2023-01-19T23:50:48.082Z,4.28
